sensor_id;sensor_type;location;lat;lon;timestamp;pressure;altitude;pressure_sealevel;temperature;humidity
44441;BME280;30146;52.268;20.944;2022-12-07T00:00:46;99638.86;;;3.16;73.67
44441;BME280;30146;52.268;20.944;2022-12-07T00:03:17;99638.17;;;3.14;73.65
44441;BME280;30146;52.268;20.944;2022-12-07T00:05:48;99634.96;;;3.15;73.85
44441;BME280;30146;52.268;20.944;2022-12-07T00:08:19;99632.11;;;3.16;73.92
44441;BME280;30146;52.268;20.944;2022-12-07T00:10:50;99628.73;;;3.16;73.75
44441;BME280;30146;52.268;20.944;2022-12-07T00:13:22;99624.33;;;3.15;73.60
44441;BME280;30146;52.268;20.944;2022-12-07T00:15:53;99617.23;;;3.14;73.49
44441;BME280;30146;52.268;20.944;2022-12-07T00:18:24;99620.12;;;3.17;73.46
44441;BME280;30146;52.268;20.944;2022-12-07T00:21:00;99616.42;;;3.18;73.65
44441;BME280;30146;52.268;20.944;2022-12-07T00:23:32;99615.59;;;3.21;73.70
44441;BME280;30146;52.268;20.944;2022-12-07T00:26:08;99615.59;;;3.21;73.98
44441;BME280;30146;52.268;20.944;2022-12-07T00:28:40;99616.44;;;3.20;73.57
44441;BME280;30146;52.268;20.944;2022-12-07T00:31:13;99617.27;;;3.20;73.45
44441;BME280;30146;52.268;20.944;2022-12-07T00:33:45;99613.41;;;3.21;73.84
44441;BME280;30146;52.268;20.944;2022-12-07T00:36:18;99614.61;;;3.24;73.82
44441;BME280;30146;52.268;20.944;2022-12-07T00:38:57;99611.09;;;3.27;74.01
44441;BME280;30146;52.268;20.944;2022-12-07T00:41:29;99611.97;;;3.31;74.07
44441;BME280;30146;52.268;20.944;2022-12-07T00:44:00;99609.45;;;3.34;74.22
44441;BME280;30146;52.268;20.944;2022-12-07T00:46:31;99611.51;;;3.36;74.29
44441;BME280;30146;52.268;20.944;2022-12-07T00:49:02;99609.32;;;3.36;74.08
44441;BME280;30146;52.268;20.944;2022-12-07T00:51:33;99610.84;;;3.39;74.06
44441;BME280;30146;52.268;20.944;2022-12-07T00:54:04;99606.63;;;3.40;74.52
44441;BME280;30146;52.268;20.944;2022-12-07T00:56:35;99610.69;;;3.40;74.77
44441;BME280;30146;52.268;20.944;2022-12-07T00:59:06;99607.49;;;3.41;74.26
44441;BME280;30146;52.268;20.944;2022-12-07T01:01:38;99606.65;;;3.42;74.40
44441;BME280;30146;52.268;20.944;2022-12-07T01:04:09;99607.85;;;3.44;74.38
44441;BME280;30146;52.268;20.944;2022-12-07T01:06:40;99604.16;;;3.48;74.55
44441;BME280;30146;52.268;20.944;2022-12-07T01:09:11;99600.46;;;3.50;74.54
44441;BME280;30146;52.268;20.944;2022-12-07T01:11:42;99599.47;;;3.53;74.68
44441;BME280;30146;52.268;20.944;2022-12-07T01:14:13;99601.02;;;3.56;74.72
44441;BME280;30146;52.268;20.944;2022-12-07T01:16:44;99597.80;;;3.57;74.62
44441;BME280;30146;52.268;20.944;2022-12-07T01:19:15;99598.15;;;3.58;74.75
44441;BME280;30146;52.268;20.944;2022-12-07T01:21:46;99597.30;;;3.58;74.71
44441;BME280;30146;52.268;20.944;2022-12-07T01:24:16;99592.75;;;3.59;74.80
44441;BME280;30146;52.268;20.944;2022-12-07T01:26:50;99590.89;;;3.60;74.69
44441;BME280;30146;52.268;20.944;2022-12-07T01:29:20;99589.05;;;3.61;74.83
44441;BME280;30146;52.268;20.944;2022-12-07T01:31:51;99588.70;;;3.61;74.52
44441;BME280;30146;52.268;20.944;2022-12-07T01:34:23;99589.38;;;3.61;74.60
44441;BME280;30146;52.268;20.944;2022-12-07T01:36:54;99589.73;;;3.62;74.78
44441;BME280;30146;52.268;20.944;2022-12-07T01:39:25;99593.11;;;3.63;74.47
44441;BME280;30146;52.268;20.944;2022-12-07T01:41:56;99589.90;;;3.64;74.84
44441;BME280;30146;52.268;20.944;2022-12-07T01:44:28;99592.95;;;3.64;74.88
44441;BME280;30146;52.268;20.944;2022-12-07T01:47:03;99589.77;;;3.67;74.87
44441;BME280;30146;52.268;20.944;2022-12-07T01:49:37;99588.92;;;3.69;74.68
44441;BME280;30146;52.268;20.944;2022-12-07T01:52:18;99587.41;;;3.70;74.44
44441;BME280;30146;52.268;20.944;2022-12-07T01:54:54;99588.59;;;3.72;74.67
44441;BME280;30146;52.268;20.944;2022-12-07T01:57:26;99590.83;;;3.74;74.65
44441;BME280;30146;52.268;20.944;2022-12-07T01:59:58;99585.58;;;3.75;74.70
44441;BME280;30146;52.268;20.944;2022-12-07T02:02:45;99581.71;;;3.78;74.57
44441;BME280;30146;52.268;20.944;2022-12-07T02:05:19;99579.52;;;3.79;74.56
44441;BME280;30146;52.268;20.944;2022-12-07T02:07:51;99579.52;;;3.79;74.81
44441;BME280;30146;52.268;20.944;2022-12-07T02:10:26;99577.33;;;3.79;74.62
44441;BME280;30146;52.268;20.944;2022-12-07T02:13:00;99576.48;;;3.80;75.06
44441;BME280;30146;52.268;20.944;2022-12-07T02:15:38;99579.03;;;3.83;74.89
44441;BME280;30146;52.268;20.944;2022-12-07T02:18:19;99576.85;;;3.86;74.82
44441;BME280;30146;52.268;20.944;2022-12-07T02:20:56;99569.08;;;3.87;74.57
44441;BME280;30146;52.268;20.944;2022-12-07T02:23:41;99575.52;;;3.88;74.72
44441;BME280;30146;52.268;20.944;2022-12-07T02:29:32;99572.14;;;3.89;74.57
44441;BME280;30146;52.268;20.944;2022-12-07T02:32:08;99568.25;;;3.89;74.75
44441;BME280;30146;52.268;20.944;2022-12-07T02:34:47;99568.77;;;3.91;74.68
44441;BME280;30146;52.268;20.944;2022-12-07T02:37:25;99571.13;;;3.91;74.52
44441;BME280;30146;52.268;20.944;2022-12-07T02:40:01;99568.61;;;3.94;74.64
44441;BME280;30146;52.268;20.944;2022-12-07T02:42:38;99569.30;;;3.97;74.85
44441;BME280;30146;52.268;20.944;2022-12-07T02:45:12;99567.95;;;3.98;74.66
44441;BME280;30146;52.268;20.944;2022-12-07T02:47:44;99568.96;;;3.97;74.42
44441;BME280;30146;52.268;20.944;2022-12-07T02:50:19;99564.23;;;3.95;74.72
44441;BME280;30146;52.268;20.944;2022-12-07T02:52:50;99564.05;;;3.94;74.37
44441;BME280;30146;52.268;20.944;2022-12-07T02:55:26;99564.88;;;3.91;74.53
44441;BME280;30146;52.268;20.944;2022-12-07T02:58:12;99563.34;;;3.88;74.34
44441;BME280;30146;52.268;20.944;2022-12-07T03:00:55;99563.83;;;3.88;74.57
44441;BME280;30146;52.268;20.944;2022-12-07T03:03:32;99563.52;;;3.89;74.25
44441;BME280;30146;52.268;20.944;2022-12-07T03:06:11;99566.05;;;3.90;74.31
44441;BME280;30146;52.268;20.944;2022-12-07T03:08:52;99563.02;;;3.91;74.63
44441;BME280;30146;52.268;20.944;2022-12-07T03:11:32;99563.36;;;3.90;74.31
44441;BME280;30146;52.268;20.944;2022-12-07T03:14:13;99562.00;;;3.90;74.81
44441;BME280;30146;52.268;20.944;2022-12-07T03:16:52;99559.63;;;3.88;74.72
44441;BME280;30146;52.268;20.944;2022-12-07T03:19:24;99559.43;;;3.86;74.57
44441;BME280;30146;52.268;20.944;2022-12-07T03:22:00;99557.58;;;3.83;74.30
44441;BME280;30146;52.268;20.944;2022-12-07T03:24:39;99557.38;;;3.81;74.29
44441;BME280;30146;52.268;20.944;2022-12-07T03:27:28;99557.71;;;3.80;74.17
44441;BME280;30146;52.268;20.944;2022-12-07T03:30:03;99553.31;;;3.80;74.51
44441;BME280;30146;52.268;20.944;2022-12-07T03:32:38;99552.98;;;3.82;74.43
44441;BME280;30146;52.268;20.944;2022-12-07T03:35:16;99550.13;;;3.82;74.44
44441;BME280;30146;52.268;20.944;2022-12-07T03:37:51;99543.20;;;3.83;74.56
44441;BME280;30146;52.268;20.944;2022-12-07T03:40:26;99543.71;;;3.84;74.80
44441;BME280;30146;52.268;20.944;2022-12-07T03:43:00;99543.02;;;3.83;74.11
44441;BME280;30146;52.268;20.944;2022-12-07T03:45:36;99537.45;;;3.81;74.32
44441;BME280;30146;52.268;20.944;2022-12-07T03:48:15;99531.18;;;3.79;74.25
44441;BME280;30146;52.268;20.944;2022-12-07T03:50:54;99529.14;;;3.75;74.10
44441;BME280;30146;52.268;20.944;2022-12-07T03:53:33;99527.42;;;3.73;74.03
44441;BME280;30146;52.268;20.944;2022-12-07T03:56:07;99524.55;;;3.72;74.21
44441;BME280;30146;52.268;20.944;2022-12-07T03:58:40;99521.33;;;3.70;74.09
44441;BME280;30146;52.268;20.944;2022-12-07T04:01:12;99520.80;;;3.67;74.28
44441;BME280;30146;52.268;20.944;2022-12-07T04:03:43;99525.86;;;3.65;73.93
44441;BME280;30146;52.268;20.944;2022-12-07T04:06:15;99525.00;;;3.61;74.07
44441;BME280;30146;52.268;20.944;2022-12-07T04:08:46;99522.10;;;3.58;74.16
44441;BME280;30146;52.268;20.944;2022-12-07T04:11:17;99520.91;;;3.56;74.27
44441;BME280;30146;52.268;20.944;2022-12-07T04:13:48;99520.90;;;3.55;74.19
44441;BME280;30146;52.268;20.944;2022-12-07T04:16:36;99518.53;;;3.54;74.27
44441;BME280;30146;52.268;20.944;2022-12-07T04:19:13;99517.85;;;3.52;74.08
44441;BME280;30146;52.268;20.944;2022-12-07T04:21:44;99520.71;;;3.51;74.01
44441;BME280;30146;52.268;20.944;2022-12-07T04:24:16;99519.35;;;3.49;74.39
44441;BME280;30146;52.268;20.944;2022-12-07T04:26:47;99517.99;;;3.47;74.40
44441;BME280;30146;52.268;20.944;2022-12-07T04:29:19;99521.85;;;3.45;74.35
44441;BME280;30146;52.268;20.944;2022-12-07T04:31:51;99521.84;;;3.42;74.48
44441;BME280;30146;52.268;20.944;2022-12-07T04:34:22;99519.13;;;3.40;74.35
44441;BME280;30146;52.268;20.944;2022-12-07T04:36:53;99515.40;;;3.39;74.16
44441;BME280;30146;52.268;20.944;2022-12-07T04:39:25;99511.50;;;3.37;74.37
44441;BME280;30146;52.268;20.944;2022-12-07T04:41:58;99510.15;;;3.36;74.10
44441;BME280;30146;52.268;20.944;2022-12-07T04:44:30;99511.82;;;3.34;74.11
44441;BME280;30146;52.268;20.944;2022-12-07T04:47:01;99512.14;;;3.31;74.34
44441;BME280;30146;52.268;20.944;2022-12-07T04:49:33;99515.00;;;3.30;74.30
44441;BME280;30146;52.268;20.944;2022-12-07T04:52:04;99513.48;;;3.27;74.43
44441;BME280;30146;52.268;20.944;2022-12-07T04:54:35;99514.14;;;3.26;74.41
44441;BME280;30146;52.268;20.944;2022-12-07T04:57:06;99507.20;;;3.26;74.55
44441;BME280;30146;52.268;20.944;2022-12-07T04:59:37;99509.23;;;3.25;74.39
44441;BME280;30146;52.268;20.944;2022-12-07T05:02:13;99505.68;;;3.25;74.15
44441;BME280;30146;52.268;20.944;2022-12-07T05:04:44;99507.20;;;3.25;74.41
44441;BME280;30146;52.268;20.944;2022-12-07T05:07:15;99509.05;;;3.25;74.41
44441;BME280;30146;52.268;20.944;2022-12-07T05:09:46;99506.35;;;3.25;74.30
44441;BME280;30146;52.268;20.944;2022-12-07T05:12:17;99505.85;;;3.23;74.50
44441;BME280;30146;52.268;20.944;2022-12-07T05:14:48;99501.80;;;3.22;74.42
44441;BME280;30146;52.268;20.944;2022-12-07T05:17:19;99500.61;;;3.22;74.36
44441;BME280;30146;52.268;20.944;2022-12-07T05:19:50;99493.48;;;3.20;74.28
44441;BME280;30146;52.268;20.944;2022-12-07T05:22:21;99492.29;;;3.17;74.29
44441;BME280;30146;52.268;20.944;2022-12-07T05:24:54;99491.95;;;3.16;74.19
44441;BME280;30146;52.268;20.944;2022-12-07T05:27:25;99494.98;;;3.17;74.24
44441;BME280;30146;52.268;20.944;2022-12-07T05:29:56;99494.15;;;3.17;74.44
44441;BME280;30146;52.268;20.944;2022-12-07T05:32:32;99491.10;;;3.15;73.83
44441;BME280;30146;52.268;20.944;2022-12-07T05:35:07;99492.08;;;3.11;73.91
44441;BME280;30146;52.268;20.944;2022-12-07T05:37:39;99489.34;;;3.06;74.00
44441;BME280;30146;52.268;20.944;2022-12-07T05:40:11;99486.29;;;3.03;74.06
44441;BME280;30146;52.268;20.944;2022-12-07T05:42:43;99490.98;;;3.00;73.94
44441;BME280;30146;52.268;20.944;2022-12-07T05:45:14;99494.17;;;2.97;74.28
44441;BME280;30146;52.268;20.944;2022-12-07T05:47:45;99496.67;;;2.93;74.03
44441;BME280;30146;52.268;20.944;2022-12-07T05:50:18;99495.81;;;2.92;74.00
44441;BME280;30146;52.268;20.944;2022-12-07T05:53:01;99497.67;;;2.92;74.21
44441;BME280;30146;52.268;20.944;2022-12-07T05:55:32;99500.73;;;2.94;74.21
44441;BME280;30146;52.268;20.944;2022-12-07T05:58:03;99500.20;;;2.91;74.15
44441;BME280;30146;52.268;20.944;2022-12-07T06:00:55;99495.79;;;2.89;74.28
44441;BME280;30146;52.268;20.944;2022-12-07T06:03:26;99496.62;;;2.86;74.10
44441;BME280;30146;52.268;20.944;2022-12-07T06:05:57;99499.13;;;2.84;74.17
44441;BME280;30146;52.268;20.944;2022-12-07T06:08:28;99498.09;;;2.81;74.10
44441;BME280;30146;52.268;20.944;2022-12-07T06:10:59;99498.23;;;2.77;73.97
44441;BME280;30146;52.268;20.944;2022-12-07T06:13:44;99498.70;;;2.74;74.04
44441;BME280;30146;52.268;20.944;2022-12-07T06:16:16;99499.38;;;2.73;74.14
44441;BME280;30146;52.268;20.944;2022-12-07T06:18:47;99497.34;;;2.73;74.05
44441;BME280;30146;52.268;20.944;2022-12-07T06:21:17;99496.35;;;2.74;74.50
44441;BME280;30146;52.268;20.944;2022-12-07T06:23:48;99495.50;;;2.75;74.27
44441;BME280;30146;52.268;20.944;2022-12-07T06:26:19;99494.33;;;2.74;74.15
44441;BME280;30146;52.268;20.944;2022-12-07T06:28:51;99491.11;;;2.74;74.41
44441;BME280;30146;52.268;20.944;2022-12-07T06:31:21;99487.23;;;2.74;74.27
44441;BME280;30146;52.268;20.944;2022-12-07T06:33:56;99489.23;;;2.72;74.05
44441;BME280;30146;52.268;20.944;2022-12-07T06:36:27;99489.73;;;2.69;73.98
44441;BME280;30146;52.268;20.944;2022-12-07T06:38:58;99488.36;;;2.66;73.98
44441;BME280;30146;52.268;20.944;2022-12-07T06:41:29;99489.68;;;2.64;74.04
44441;BME280;30146;52.268;20.944;2022-12-07T06:44:00;99490.85;;;2.63;73.95
44441;BME280;30146;52.268;20.944;2022-12-07T06:46:33;99488.67;;;2.64;74.29
44441;BME280;30146;52.268;20.944;2022-12-07T06:49:05;99490.53;;;2.65;74.19
44441;BME280;30146;52.268;20.944;2022-12-07T06:51:36;99489.86;;;2.65;74.21
44441;BME280;30146;52.268;20.944;2022-12-07T06:54:11;99489.02;;;2.67;74.19
44441;BME280;30146;52.268;20.944;2022-12-07T06:56:42;99489.72;;;2.68;74.29
44441;BME280;30146;52.268;20.944;2022-12-07T06:59:14;99489.04;;;2.68;74.21
44441;BME280;30146;52.268;20.944;2022-12-07T07:01:45;99488.36;;;2.68;74.19
44441;BME280;30146;52.268;20.944;2022-12-07T07:04:16;99488.02;;;2.67;74.27
44441;BME280;30146;52.268;20.944;2022-12-07T07:06:46;99485.52;;;2.68;74.38
44441;BME280;30146;52.268;20.944;2022-12-07T07:09:17;99493.44;;;2.69;74.58
44441;BME280;30146;52.268;20.944;2022-12-07T07:11:48;99496.16;;;2.71;74.29
44441;BME280;30146;52.268;20.944;2022-12-07T07:14:19;99493.12;;;2.72;74.51
44441;BME280;30146;52.268;20.944;2022-12-07T07:16:51;99493.13;;;2.73;74.44
44441;BME280;30146;52.268;20.944;2022-12-07T07:19:22;99490.77;;;2.72;74.50
44441;BME280;30146;52.268;20.944;2022-12-07T07:21:53;99488.05;;;2.71;74.71
44441;BME280;30146;52.268;20.944;2022-12-07T07:24:24;99486.86;;;2.70;74.35
44441;BME280;30146;52.268;20.944;2022-12-07T07:26:56;99484.16;;;2.69;74.46
44441;BME280;30146;52.268;20.944;2022-12-07T07:29:26;99490.40;;;2.70;74.52
44441;BME280;30146;52.268;20.944;2022-12-07T07:31:57;99491.76;;;2.71;74.43
44441;BME280;30146;52.268;20.944;2022-12-07T07:34:35;99490.77;;;2.73;74.52
44441;BME280;30146;52.268;20.944;2022-12-07T07:37:06;99492.79;;;2.72;74.47
44441;BME280;30146;52.268;20.944;2022-12-07T07:39:37;99496.14;;;2.70;74.36
44441;BME280;30146;52.268;20.944;2022-12-07T07:42:17;99494.30;;;2.72;74.62
44441;BME280;30146;52.268;20.944;2022-12-07T07:44:48;99492.46;;;2.74;74.48
44441;BME280;30146;52.268;20.944;2022-12-07T07:47:19;99489.24;;;2.72;74.38
44441;BME280;30146;52.268;20.944;2022-12-07T07:49:50;99494.63;;;2.71;74.24
44441;BME280;30146;52.268;20.944;2022-12-07T07:52:21;99492.27;;;2.70;74.26
44441;BME280;30146;52.268;20.944;2022-12-07T07:54:52;99488.71;;;2.69;74.35
44441;BME280;30146;52.268;20.944;2022-12-07T07:57:23;99489.21;;;2.68;74.54
44441;BME280;30146;52.268;20.944;2022-12-07T07:59:54;99491.91;;;2.69;74.60
44441;BME280;30146;52.268;20.944;2022-12-07T08:02:25;99490.73;;;2.70;74.80
44441;BME280;30146;52.268;20.944;2022-12-07T08:04:59;99487.54;;;2.69;74.67
44441;BME280;30146;52.268;20.944;2022-12-07T08:07:30;99490.39;;;2.68;74.62
44441;BME280;30146;52.268;20.944;2022-12-07T08:10:01;99496.81;;;2.68;74.41
44441;BME280;30146;52.268;20.944;2022-12-07T08:12:32;99493.44;;;2.70;74.77
44441;BME280;30146;52.268;20.944;2022-12-07T08:15:07;99491.59;;;2.71;74.95
44441;BME280;30146;52.268;20.944;2022-12-07T08:17:38;99496.19;;;2.74;74.70
44441;BME280;30146;52.268;20.944;2022-12-07T08:20:10;99499.08;;;2.76;74.68
44441;BME280;30146;52.268;20.944;2022-12-07T08:22:41;99500.58;;;2.76;74.67
44441;BME280;30146;52.268;20.944;2022-12-07T08:25:12;99502.80;;;2.78;74.69
44441;BME280;30146;52.268;20.944;2022-12-07T08:27:43;99504.83;;;2.79;75.05
44441;BME280;30146;52.268;20.944;2022-12-07T08:30:15;99503.99;;;2.80;74.76
44441;BME280;30146;52.268;20.944;2022-12-07T08:32:47;99510.22;;;2.78;75.07
44441;BME280;30146;52.268;20.944;2022-12-07T08:35:18;99511.58;;;2.79;74.92
44441;BME280;30146;52.268;20.944;2022-12-07T08:37:49;99514.96;;;2.80;75.08
44441;BME280;30146;52.268;20.944;2022-12-07T08:40:20;99517.16;;;2.80;75.19
44441;BME280;30146;52.268;20.944;2022-12-07T08:42:52;99515.96;;;2.79;75.15
44441;BME280;30146;52.268;20.944;2022-12-07T08:45:23;99513.94;;;2.78;75.23
44441;BME280;30146;52.268;20.944;2022-12-07T08:48:02;99514.63;;;2.79;75.06
44441;BME280;30146;52.268;20.944;2022-12-07T08:50:35;99511.78;;;2.83;75.56
44441;BME280;30146;52.268;20.944;2022-12-07T08:53:10;99513.16;;;2.86;75.30
44441;BME280;30146;52.268;20.944;2022-12-07T08:55:41;99514.55;;;2.92;75.32
44441;BME280;30146;52.268;20.944;2022-12-07T08:58:12;99516.95;;;2.97;75.62
44441;BME280;30146;52.268;20.944;2022-12-07T09:00:43;99513.64;;;3.03;75.68
44441;BME280;30146;52.268;20.944;2022-12-07T09:03:14;99514.02;;;3.09;75.98
44441;BME280;30146;52.268;20.944;2022-12-07T09:05:44;99507.64;;;3.16;75.86
44441;BME280;30146;52.268;20.944;2022-12-07T09:08:15;99504.31;;;3.22;75.76
44441;BME280;30146;52.268;20.944;2022-12-07T09:10:46;99501.80;;;3.27;75.89
44441;BME280;30146;52.268;20.944;2022-12-07T09:13:18;99496.95;;;3.33;75.80
44441;BME280;30146;52.268;20.944;2022-12-07T09:15:49;99494.96;;;3.39;75.66
44441;BME280;30146;52.268;20.944;2022-12-07T09:18:20;99490.77;;;3.45;75.32
44441;BME280;30146;52.268;20.944;2022-12-07T09:20:51;99491.82;;;3.51;75.82
44441;BME280;30146;52.268;20.944;2022-12-07T09:23:22;99490.16;;;3.56;75.75
44441;BME280;30146;52.268;20.944;2022-12-07T09:25:53;99487.14;;;3.60;75.76
44441;BME280;30146;52.268;20.944;2022-12-07T09:28:23;99482.61;;;3.66;75.64
44441;BME280;30146;52.268;20.944;2022-12-07T09:30:54;99476.36;;;3.70;75.47
44441;BME280;30146;52.268;20.944;2022-12-07T09:33:45;99477.08;;;3.75;75.65
44441;BME280;30146;52.268;20.944;2022-12-07T09:36:16;99480.46;;;3.80;75.40
44441;BME280;30146;52.268;20.944;2022-12-07T09:38:47;99476.09;;;3.86;75.58
44441;BME280;30146;52.268;20.944;2022-12-07T09:41:18;99478.64;;;3.91;75.60
44441;BME280;30146;52.268;20.944;2022-12-07T09:43:50;99473.25;;;3.95;75.53
44441;BME280;30146;52.268;20.944;2022-12-07T09:46:22;99475.81;;;4.00;75.44
44441;BME280;30146;52.268;20.944;2022-12-07T09:48:53;99473.28;;;4.04;75.60
44441;BME280;30146;52.268;20.944;2022-12-07T09:51:24;99474.46;;;4.07;75.26
44441;BME280;30146;52.268;20.944;2022-12-07T09:53:57;99469.91;;;4.10;75.30
44441;BME280;30146;52.268;20.944;2022-12-07T09:56:31;99465.35;;;4.11;75.06
44441;BME280;30146;52.268;20.944;2022-12-07T09:59:04;99466.20;;;4.13;74.85
44441;BME280;30146;52.268;20.944;2022-12-07T10:01:35;99470.93;;;4.14;74.81
44441;BME280;30146;52.268;20.944;2022-12-07T10:04:12;99459.95;;;4.16;74.96
44441;BME280;30146;52.268;20.944;2022-12-07T10:06:44;99460.98;;;4.17;74.57
44441;BME280;30146;52.268;20.944;2022-12-07T10:09:18;99461.48;;;4.18;74.73
44441;BME280;30146;52.268;20.944;2022-12-07T10:12:08;99456.92;;;4.20;74.86
44441;BME280;30146;52.268;20.944;2022-12-07T10:14:53;99459.45;;;4.23;74.66
44441;BME280;30146;52.268;20.944;2022-12-07T10:17:50;99462.00;;;4.26;74.59
44441;BME280;30146;52.268;20.944;2022-12-07T10:20:26;99462.02;;;4.27;74.44
44441;BME280;30146;52.268;20.944;2022-12-07T10:23:15;99459.82;;;4.29;74.57
44441;BME280;30146;52.268;20.944;2022-12-07T10:25:55;99459.64;;;4.30;74.26
44441;BME280;30146;52.268;20.944;2022-12-07T10:28:35;99451.17;;;4.29;74.37
44441;BME280;30146;52.268;20.944;2022-12-07T10:31:18;99456.77;;;4.27;74.31
44441;BME280;30146;52.268;20.944;2022-12-07T10:33:54;99447.45;;;4.23;73.81
44441;BME280;30146;52.268;20.944;2022-12-07T10:36:29;99447.95;;;4.17;73.67
44441;BME280;30146;52.268;20.944;2022-12-07T10:39:11;99450.14;;;4.14;73.68
44441;BME280;30146;52.268;20.944;2022-12-07T10:41:56;99448.44;;;4.13;74.03
44441;BME280;30146;52.268;20.944;2022-12-07T10:44:28;99449.98;;;4.14;73.82
44441;BME280;30146;52.268;20.944;2022-12-07T10:47:12;99449.80;;;4.13;73.86
44441;BME280;30146;52.268;20.944;2022-12-07T10:50:05;99451.66;;;4.14;73.75
44441;BME280;30146;52.268;20.944;2022-12-07T10:52:58;99450.64;;;4.14;73.55
44441;BME280;30146;52.268;20.944;2022-12-07T10:55:47;99450.48;;;4.14;74.02
44441;BME280;30146;52.268;20.944;2022-12-07T10:58:31;99450.31;;;4.16;73.97
44441;BME280;30146;52.268;20.944;2022-12-07T11:01:13;99449.13;;;4.17;73.88
44441;BME280;30146;52.268;20.944;2022-12-07T11:04:06;99451.33;;;4.20;73.98
44441;BME280;30146;52.268;20.944;2022-12-07T11:06:43;99446.61;;;4.21;73.83
44441;BME280;30146;52.268;20.944;2022-12-07T11:09:33;99447.11;;;4.24;73.97
44441;BME280;30146;52.268;20.944;2022-12-07T11:12:37;99446.10;;;4.26;73.75
44441;BME280;30146;52.268;20.944;2022-12-07T11:15:16;99447.12;;;4.30;73.73
44441;BME280;30146;52.268;20.944;2022-12-07T11:17:54;99449.50;;;4.33;74.13
44441;BME280;30146;52.268;20.944;2022-12-07T11:20:46;99448.16;;;4.34;73.95
44441;BME280;30146;52.268;20.944;2022-12-07T11:23:27;99447.30;;;4.34;73.77
44441;BME280;30146;52.268;20.944;2022-12-07T11:26:07;99444.08;;;4.32;73.61
44441;BME280;30146;52.268;20.944;2022-12-07T11:29:03;99443.91;;;4.33;73.58
44441;BME280;30146;52.268;20.944;2022-12-07T11:31:41;99445.27;;;4.34;73.57
44441;BME280;30146;52.268;20.944;2022-12-07T11:34:25;99441.20;;;4.35;73.92
44441;BME280;30146;52.268;20.944;2022-12-07T11:36:59;99437.48;;;4.34;73.62
44441;BME280;30146;52.268;20.944;2022-12-07T11:39:37;99435.29;;;4.33;73.63
44441;BME280;30146;52.268;20.944;2022-12-07T11:42:14;99435.29;;;4.35;73.63
44441;BME280;30146;52.268;20.944;2022-12-07T11:44:52;99433.25;;;4.36;73.69
44441;BME280;30146;52.268;20.944;2022-12-07T11:47:30;99428.70;;;4.38;73.75
44441;BME280;30146;52.268;20.944;2022-12-07T11:50:20;99433.26;;;4.41;73.46
44441;BME280;30146;52.268;20.944;2022-12-07T11:52:55;99427.02;;;4.46;73.61
44441;BME280;30146;52.268;20.944;2022-12-07T11:55:29;99427.35;;;4.50;73.51
44441;BME280;30146;52.268;20.944;2022-12-07T11:58:04;99426.84;;;4.51;73.40
44441;BME280;30146;52.268;20.944;2022-12-07T12:00:42;99425.99;;;4.53;73.70
44441;BME280;30146;52.268;20.944;2022-12-07T12:03:18;99423.29;;;4.56;73.73
44441;BME280;30146;52.268;20.944;2022-12-07T12:05:51;99423.96;;;4.61;73.67
44441;BME280;30146;52.268;20.944;2022-12-07T12:08:26;99425.16;;;4.64;73.75
44441;BME280;30146;52.268;20.944;2022-12-07T12:11:30;99423.79;;;4.61;73.26
44441;BME280;30146;52.268;20.944;2022-12-07T12:14:30;99415.33;;;4.59;73.21
44441;BME280;30146;52.268;20.944;2022-12-07T12:17:49;99416.52;;;4.56;72.97
44441;BME280;30146;52.268;20.944;2022-12-07T12:20:26;99414.48;;;4.51;73.06
44441;BME280;30146;52.268;20.944;2022-12-07T12:23:04;99413.46;;;4.46;73.00
44441;BME280;30146;52.268;20.944;2022-12-07T12:25:41;99408.90;;;4.40;73.01
44441;BME280;30146;52.268;20.944;2022-12-07T12:28:24;99407.71;;;4.35;72.87
44441;BME280;30146;52.268;20.944;2022-12-07T12:31:11;99401.61;;;4.31;73.18
44441;BME280;30146;52.268;20.944;2022-12-07T12:33:46;99397.05;;;4.28;73.43
44441;BME280;30146;52.268;20.944;2022-12-07T12:36:24;99395.70;;;4.25;73.15
44441;BME280;30146;52.268;20.944;2022-12-07T12:39:14;99399.73;;;4.24;73.49
44441;BME280;30146;52.268;20.944;2022-12-07T12:42:00;99402.45;;;4.22;73.51
44441;BME280;30146;52.268;20.944;2022-12-07T12:47:44;99405.49;;;4.19;73.48
44441;BME280;30146;52.268;20.944;2022-12-07T12:50:25;99399.59;;;4.16;73.49
44441;BME280;30146;52.268;20.944;2022-12-07T12:53:11;99399.06;;;4.15;73.51
44441;BME280;30146;52.268;20.944;2022-12-07T12:58:46;99395.34;;;4.13;73.43
44441;BME280;30146;52.268;20.944;2022-12-07T13:01:50;99393.31;;;4.12;73.68
44441;BME280;30146;52.268;20.944;2022-12-07T13:04:40;99390.77;;;4.09;73.54
44441;BME280;30146;52.268;20.944;2022-12-07T13:07:49;99388.73;;;4.08;73.70
44441;BME280;30146;52.268;20.944;2022-12-07T13:10:28;99391.09;;;4.03;73.39
44441;BME280;30146;52.268;20.944;2022-12-07T13:13:04;99384.82;;;3.97;73.08
44441;BME280;30146;52.268;20.944;2022-12-07T13:15:39;99385.83;;;3.95;73.44
44441;BME280;30146;52.268;20.944;2022-12-07T13:23:59;99391.73;;;3.83;73.28
44441;BME280;30146;52.268;20.944;2022-12-07T13:26:37;99391.73;;;3.80;73.38
44441;BME280;30146;52.268;20.944;2022-12-07T13:29:13;99385.81;;;3.78;73.42
44441;BME280;30146;52.268;20.944;2022-12-07T13:31:46;99385.61;;;3.73;73.13
44441;BME280;30146;52.268;20.944;2022-12-07T13:34:33;99386.28;;;3.69;73.08
44441;BME280;30146;52.268;20.944;2022-12-07T13:37:12;99386.61;;;3.68;73.46
44441;BME280;30146;52.268;20.944;2022-12-07T13:39:49;99385.77;;;3.68;73.33
44441;BME280;30146;52.268;20.944;2022-12-07T13:42:26;99387.12;;;3.68;73.49
44441;BME280;30146;52.268;20.944;2022-12-07T13:44:59;99386.10;;;3.66;73.19
44441;BME280;30146;52.268;20.944;2022-12-07T13:47:34;99392.17;;;3.64;73.28
44441;BME280;30146;52.268;20.944;2022-12-07T13:50:24;99397.41;;;3.63;73.70
44441;BME280;30146;52.268;20.944;2022-12-07T13:52:58;99394.54;;;3.61;73.35
44441;BME280;30146;52.268;20.944;2022-12-07T13:55:30;99395.55;;;3.58;73.25
44441;BME280;30146;52.268;20.944;2022-12-07T13:58:01;99392.16;;;3.57;73.32